sensor_id;sensor_type;location;lat;lon;timestamp;P1;durP1;ratioP1;P2;durP2;ratioP2
21814;SDS011;11069;48.988;8.450;2023-02-15T00:02:15;139.40;;;62.13;;
21814;SDS011;11069;48.988;8.450;2023-02-15T00:04:41;159.63;;;66.28;;
21814;SDS011;11069;48.988;8.450;2023-02-15T00:07:16;120.65;;;65.78;;
21814;SDS011;11069;48.988;8.450;2023-02-15T00:09:44;174.40;;;73.87;;
21814;SDS011;11069;48.988;8.450;2023-02-15T00:12:11;116.75;;;68.18;;
21814;SDS011;11069;48.988;8.450;2023-02-15T00:14:36;115.97;;;69.65;;
21814;SDS011;11069;48.988;8.450;2023-02-15T00:17:02;118.78;;;67.10;;
21814;SDS011;11069;48.988;8.450;2023-02-15T00:19:28;206.57;;;70.45;;
21814;SDS011;11069;48.988;8.450;2023-02-15T00:21:53;112.60;;;69.65;;
21814;SDS011;11069;48.988;8.450;2023-02-15T00:24:19;110.78;;;69.68;;
21814;SDS011;11069;48.988;8.450;2023-02-15T00:26:45;118.07;;;69.50;;
21814;SDS011;11069;48.988;8.450;2023-02-15T00:29:11;109.90;;;67.90;;
21814;SDS011;11069;48.988;8.450;2023-02-15T00:31:38;124.95;;;68.55;;
21814;SDS011;11069;48.988;8.450;2023-02-15T00:34:04;119.95;;;68.53;;
21814;SDS011;11069;48.988;8.450;2023-02-15T00:36:32;131.20;;;64.85;;
21814;SDS011;11069;48.988;8.450;2023-02-15T00:39:00;131.90;;;67.63;;
21814;SDS011;11069;48.988;8.450;2023-02-15T00:41:26;122.43;;;68.60;;
21814;SDS011;11069;48.988;8.450;2023-02-15T00:43:51;145.05;;;66.78;;
21814;SDS011;11069;48.988;8.450;2023-02-15T00:46:17;107.88;;;66.95;;
21814;SDS011;11069;48.988;8.450;2023-02-15T00:48:42;115.13;;;68.18;;
21814;SDS011;11069;48.988;8.450;2023-02-15T00:51:08;111.45;;;70.10;;
21814;SDS011;11069;48.988;8.450;2023-02-15T00:53:34;96.72;;;65.25;;
21814;SDS011;11069;48.988;8.450;2023-02-15T00:55:59;171.98;;;73.78;;
21814;SDS011;11069;48.988;8.450;2023-02-15T00:58:25;213.55;;;74.10;;
21814;SDS011;11069;48.988;8.450;2023-02-15T01:00:51;140.63;;;72.00;;
21814;SDS011;11069;48.988;8.450;2023-02-15T01:03:17;126.35;;;69.78;;
21814;SDS011;11069;48.988;8.450;2023-02-15T01:05:46;138.35;;;75.97;;
21814;SDS011;11069;48.988;8.450;2023-02-15T01:08:12;145.80;;;64.35;;
21814;SDS011;11069;48.988;8.450;2023-02-15T01:10:40;130.75;;;64.47;;
21814;SDS011;11069;48.988;8.450;2023-02-15T01:13:06;179.88;;;70.45;;
21814;SDS011;11069;48.988;8.450;2023-02-15T01:15:33;151.02;;;66.97;;
21814;SDS011;11069;48.988;8.450;2023-02-15T01:18:00;124.85;;;68.18;;
21814;SDS011;11069;48.988;8.450;2023-02-15T01:20:26;118.72;;;69.05;;
21814;SDS011;11069;48.988;8.450;2023-02-15T01:22:53;160.48;;;73.95;;
21814;SDS011;11069;48.988;8.450;2023-02-15T01:25:21;246.60;;;79.20;;
21814;SDS011;11069;48.988;8.450;2023-02-15T01:27:47;194.55;;;75.88;;
21814;SDS011;11069;48.988;8.450;2023-02-15T01:30:13;117.45;;;67.95;;
21814;SDS011;11069;48.988;8.450;2023-02-15T01:32:40;139.27;;;68.70;;
21814;SDS011;11069;48.988;8.450;2023-02-15T01:35:07;133.77;;;68.82;;
21814;SDS011;11069;48.988;8.450;2023-02-15T01:37:33;127.30;;;64.78;;
21814;SDS011;11069;48.988;8.450;2023-02-15T01:40:00;115.85;;;67.07;;
21814;SDS011;11069;48.988;8.450;2023-02-15T01:42:26;92.53;;;59.72;;
21814;SDS011;11069;48.988;8.450;2023-02-15T01:44:54;115.65;;;65.55;;
21814;SDS011;11069;48.988;8.450;2023-02-15T01:50:07;101.95;;;60.58;;
21814;SDS011;11069;48.988;8.450;2023-02-15T01:52:40;91.40;;;56.95;;
21814;SDS011;11069;48.988;8.450;2023-02-15T01:55:14;111.35;;;62.45;;
21814;SDS011;11069;48.988;8.450;2023-02-15T01:57:40;107.15;;;59.90;;
21814;SDS011;11069;48.988;8.450;2023-02-15T02:00:07;116.60;;;61.25;;
21814;SDS011;11069;48.988;8.450;2023-02-15T02:02:33;141.65;;;64.60;;
21814;SDS011;11069;48.988;8.450;2023-02-15T02:05:00;93.63;;;57.17;;
21814;SDS011;11069;48.988;8.450;2023-02-15T02:07:32;105.05;;;59.55;;
21814;SDS011;11069;48.988;8.450;2023-02-15T02:10:07;88.38;;;57.50;;
21814;SDS011;11069;48.988;8.450;2023-02-15T02:12:34;104.65;;;61.70;;
21814;SDS011;11069;48.988;8.450;2023-02-15T02:15:02;89.30;;;57.53;;
21814;SDS011;11069;48.988;8.450;2023-02-15T02:23:16;96.90;;;61.33;;
21814;SDS011;11069;48.988;8.450;2023-02-15T02:28:37;102.93;;;59.60;;
21814;SDS011;11069;48.988;8.450;2023-02-15T02:37:30;91.32;;;56.97;;
21814;SDS011;11069;48.988;8.450;2023-02-15T02:40:25;94.28;;;58.72;;
21814;SDS011;11069;48.988;8.450;2023-02-15T02:43:20;95.10;;;59.83;;
21814;SDS011;11069;48.988;8.450;2023-02-15T02:46:00;83.03;;;55.42;;
21814;SDS011;11069;48.988;8.450;2023-02-15T02:48:32;86.93;;;57.97;;
21814;SDS011;11069;48.988;8.450;2023-02-15T02:50:58;73.78;;;51.90;;
21814;SDS011;11069;48.988;8.450;2023-02-15T02:53:24;84.95;;;56.63;;
21814;SDS011;11069;48.988;8.450;2023-02-15T02:55:53;77.22;;;56.38;;
21814;SDS011;11069;48.988;8.450;2023-02-15T02:58:24;94.03;;;59.22;;
21814;SDS011;11069;48.988;8.450;2023-02-15T03:00:55;84.38;;;56.60;;
21814;SDS011;11069;48.988;8.450;2023-02-15T03:03:33;82.18;;;55.53;;
21814;SDS011;11069;48.988;8.450;2023-02-15T03:06:10;79.47;;;55.55;;
21814;SDS011;11069;48.988;8.450;2023-02-15T03:09:01;74.05;;;53.35;;
21814;SDS011;11069;48.988;8.450;2023-02-15T03:11:33;64.97;;;49.53;;
21814;SDS011;11069;48.988;8.450;2023-02-15T03:13:59;68.82;;;51.20;;
21814;SDS011;11069;48.988;8.450;2023-02-15T03:16:25;70.63;;;51.95;;
21814;SDS011;11069;48.988;8.450;2023-02-15T03:18:55;78.30;;;54.28;;
21814;SDS011;11069;48.988;8.450;2023-02-15T03:21:50;62.90;;;49.55;;
21814;SDS011;11069;48.988;8.450;2023-02-15T03:24:23;67.10;;;51.13;;
21814;SDS011;11069;48.988;8.450;2023-02-15T03:26:53;68.43;;;50.95;;
21814;SDS011;11069;48.988;8.450;2023-02-15T03:29:22;64.65;;;49.60;;
21814;SDS011;11069;48.988;8.450;2023-02-15T03:31:52;63.55;;;48.85;;
21814;SDS011;11069;48.988;8.450;2023-02-15T03:34:21;65.28;;;48.70;;
21814;SDS011;11069;48.988;8.450;2023-02-15T03:36:51;61.00;;;47.45;;
21814;SDS011;11069;48.988;8.450;2023-02-15T03:39:22;60.58;;;47.78;;
21814;SDS011;11069;48.988;8.450;2023-02-15T03:44:47;63.92;;;48.72;;
21814;SDS011;11069;48.988;8.450;2023-02-15T03:49:55;58.05;;;46.20;;
21814;SDS011;11069;48.988;8.450;2023-02-15T03:52:25;55.90;;;45.25;;
21814;SDS011;11069;48.988;8.450;2023-02-15T03:54:52;56.30;;;44.00;;
21814;SDS011;11069;48.988;8.450;2023-02-15T03:57:23;56.72;;;44.60;;
21814;SDS011;11069;48.988;8.450;2023-02-15T04:00:19;55.33;;;43.58;;
21814;SDS011;11069;48.988;8.450;2023-02-15T04:03:11;56.92;;;43.90;;
21814;SDS011;11069;48.988;8.450;2023-02-15T04:05:40;56.95;;;44.90;;
21814;SDS011;11069;48.988;8.450;2023-02-15T04:08:08;54.28;;;43.88;;
21814;SDS011;11069;48.988;8.450;2023-02-15T04:10:34;57.80;;;45.97;;
21814;SDS011;11069;48.988;8.450;2023-02-15T04:13:21;52.92;;;43.40;;
21814;SDS011;11069;48.988;8.450;2023-02-15T04:15:48;48.65;;;40.97;;
21814;SDS011;11069;48.988;8.450;2023-02-15T04:18:32;48.00;;;40.45;;
21814;SDS011;11069;48.988;8.450;2023-02-15T04:21:24;48.95;;;40.65;;
21814;SDS011;11069;48.988;8.450;2023-02-15T04:24:10;49.10;;;41.03;;
21814;SDS011;11069;48.988;8.450;2023-02-15T04:26:54;54.05;;;42.25;;
21814;SDS011;11069;48.988;8.450;2023-02-15T04:29:23;56.67;;;42.22;;
21814;SDS011;11069;48.988;8.450;2023-02-15T04:31:50;49.83;;;41.83;;
21814;SDS011;11069;48.988;8.450;2023-02-15T04:34:16;52.30;;;43.38;;
21814;SDS011;11069;48.988;8.450;2023-02-15T04:36:42;50.55;;;42.42;;
21814;SDS011;11069;48.988;8.450;2023-02-15T04:39:08;55.72;;;41.67;;
21814;SDS011;11069;48.988;8.450;2023-02-15T04:41:34;43.85;;;37.83;;
21814;SDS011;11069;48.988;8.450;2023-02-15T04:44:00;52.45;;;42.10;;
21814;SDS011;11069;48.988;8.450;2023-02-15T04:46:26;51.92;;;40.80;;
21814;SDS011;11069;48.988;8.450;2023-02-15T04:48:53;48.75;;;40.72;;
21814;SDS011;11069;48.988;8.450;2023-02-15T04:51:19;46.85;;;38.65;;
21814;SDS011;11069;48.988;8.450;2023-02-15T04:53:44;46.17;;;39.42;;
21814;SDS011;11069;48.988;8.450;2023-02-15T04:56:10;50.47;;;41.70;;
21814;SDS011;11069;48.988;8.450;2023-02-15T04:58:36;46.60;;;40.22;;
21814;SDS011;11069;48.988;8.450;2023-02-15T05:01:02;48.30;;;40.08;;
21814;SDS011;11069;48.988;8.450;2023-02-15T05:03:28;51.28;;;40.90;;
21814;SDS011;11069;48.988;8.450;2023-02-15T05:05:53;47.47;;;40.65;;
21814;SDS011;11069;48.988;8.450;2023-02-15T05:08:19;47.13;;;39.38;;
21814;SDS011;11069;48.988;8.450;2023-02-15T05:10:47;44.58;;;38.10;;
21814;SDS011;11069;48.988;8.450;2023-02-15T05:13:15;43.38;;;37.70;;
21814;SDS011;11069;48.988;8.450;2023-02-15T05:15:41;44.83;;;37.25;;
21814;SDS011;11069;48.988;8.450;2023-02-15T05:18:11;40.20;;;35.83;;
21814;SDS011;11069;48.988;8.450;2023-02-15T05:20:36;43.67;;;37.78;;
21814;SDS011;11069;48.988;8.450;2023-02-15T05:23:02;41.50;;;36.15;;
21814;SDS011;11069;48.988;8.450;2023-02-15T05:25:27;39.67;;;35.35;;
21814;SDS011;11069;48.988;8.450;2023-02-15T05:28:11;40.80;;;35.40;;
21814;SDS011;11069;48.988;8.450;2023-02-15T05:33:41;41.47;;;36.97;;
21814;SDS011;11069;48.988;8.450;2023-02-15T05:36:07;43.50;;;37.42;;
21814;SDS011;11069;48.988;8.450;2023-02-15T05:38:34;42.72;;;37.13;;
21814;SDS011;11069;48.988;8.450;2023-02-15T05:41:02;46.60;;;38.75;;
21814;SDS011;11069;48.988;8.450;2023-02-15T05:43:29;44.47;;;38.35;;
21814;SDS011;11069;48.988;8.450;2023-02-15T05:45:55;44.17;;;37.63;;
21814;SDS011;11069;48.988;8.450;2023-02-15T05:48:22;41.00;;;35.95;;
21814;SDS011;11069;48.988;8.450;2023-02-15T05:51:02;43.25;;;37.22;;
21814;SDS011;11069;48.988;8.450;2023-02-15T05:53:30;38.08;;;29.08;;
21814;SDS011;11069;48.988;8.450;2023-02-15T05:55:57;47.30;;;39.28;;
21814;SDS011;11069;48.988;8.450;2023-02-15T05:58:27;46.03;;;39.70;;
21814;SDS011;11069;48.988;8.450;2023-02-15T06:00:55;49.08;;;40.05;;
21814;SDS011;11069;48.988;8.450;2023-02-15T06:03:21;51.88;;;39.72;;
21814;SDS011;11069;48.988;8.450;2023-02-15T06:05:47;56.30;;;40.03;;
21814;SDS011;11069;48.988;8.450;2023-02-15T06:08:13;49.08;;;40.30;;
21814;SDS011;11069;48.988;8.450;2023-02-15T06:10:39;49.95;;;39.42;;
21814;SDS011;11069;48.988;8.450;2023-02-15T06:13:05;51.00;;;39.75;;
21814;SDS011;11069;48.988;8.450;2023-02-15T06:15:31;49.53;;;40.85;;
21814;SDS011;11069;48.988;8.450;2023-02-15T06:17:57;51.83;;;41.45;;
21814;SDS011;11069;48.988;8.450;2023-02-15T06:20:22;55.40;;;41.63;;
21814;SDS011;11069;48.988;8.450;2023-02-15T06:22:48;60.45;;;41.85;;
21814;SDS011;11069;48.988;8.450;2023-02-15T06:25:13;61.95;;;43.08;;
21814;SDS011;11069;48.988;8.450;2023-02-15T06:27:40;61.47;;;44.00;;
21814;SDS011;11069;48.988;8.450;2023-02-15T06:30:07;60.55;;;45.53;;
21814;SDS011;11069;48.988;8.450;2023-02-15T06:32:34;60.83;;;45.67;;
21814;SDS011;11069;48.988;8.450;2023-02-15T06:35:00;66.30;;;45.85;;
21814;SDS011;11069;48.988;8.450;2023-02-15T06:37:25;66.57;;;45.63;;
21814;SDS011;11069;48.988;8.450;2023-02-15T06:39:51;67.72;;;47.50;;
21814;SDS011;11069;48.988;8.450;2023-02-15T06:42:16;76.90;;;45.83;;
21814;SDS011;11069;48.988;8.450;2023-02-15T06:44:43;60.67;;;44.33;;
21814;SDS011;11069;48.988;8.450;2023-02-15T06:47:09;65.03;;;46.03;;
21814;SDS011;11069;48.988;8.450;2023-02-15T06:49:35;62.28;;;46.05;;
21814;SDS011;11069;48.988;8.450;2023-02-15T06:52:01;66.20;;;46.25;;
21814;SDS011;11069;48.988;8.450;2023-02-15T06:54:27;63.22;;;45.20;;
21814;SDS011;11069;48.988;8.450;2023-02-15T06:56:52;70.13;;;45.75;;
21814;SDS011;11069;48.988;8.450;2023-02-15T06:59:18;100.20;;;47.80;;
21814;SDS011;11069;48.988;8.450;2023-02-15T07:01:43;57.33;;;42.95;;
21814;SDS011;11069;48.988;8.450;2023-02-15T07:04:09;65.57;;;46.53;;
21814;SDS011;11069;48.988;8.450;2023-02-15T07:06:35;70.85;;;46.83;;
21814;SDS011;11069;48.988;8.450;2023-02-15T07:09:00;61.35;;;45.17;;
21814;SDS011;11069;48.988;8.450;2023-02-15T07:11:26;60.88;;;44.10;;
21814;SDS011;11069;48.988;8.450;2023-02-15T07:14:11;106.88;;;51.10;;
21814;SDS011;11069;48.988;8.450;2023-02-15T07:16:37;63.55;;;43.40;;
21814;SDS011;11069;48.988;8.450;2023-02-15T07:19:03;63.78;;;44.42;;
21814;SDS011;11069;48.988;8.450;2023-02-15T07:21:28;63.83;;;44.15;;
21814;SDS011;11069;48.988;8.450;2023-02-15T07:23:57;60.65;;;43.53;;
21814;SDS011;11069;48.988;8.450;2023-02-15T07:26:23;70.30;;;47.13;;
21814;SDS011;11069;48.988;8.450;2023-02-15T07:28:51;73.15;;;45.83;;
21814;SDS011;11069;48.988;8.450;2023-02-15T07:31:17;71.88;;;45.45;;
21814;SDS011;11069;48.988;8.450;2023-02-15T07:33:42;58.95;;;41.63;;
21814;SDS011;11069;48.988;8.450;2023-02-15T07:36:08;65.80;;;42.05;;
21814;SDS011;11069;48.988;8.450;2023-02-15T07:38:37;62.13;;;41.53;;
21814;SDS011;11069;48.988;8.450;2023-02-15T07:41:05;70.90;;;43.45;;
21814;SDS011;11069;48.988;8.450;2023-02-15T07:43:32;67.72;;;43.47;;
21814;SDS011;11069;48.988;8.450;2023-02-15T07:46:03;58.50;;;40.22;;
21814;SDS011;11069;48.988;8.450;2023-02-15T07:48:32;62.28;;;40.55;;
21814;SDS011;11069;48.988;8.450;2023-02-15T07:50:59;60.78;;;40.08;;
21814;SDS011;11069;48.988;8.450;2023-02-15T07:53:28;45.00;;;31.52;;
21814;SDS011;11069;48.988;8.450;2023-02-15T07:55:57;58.17;;;40.78;;
21814;SDS011;11069;48.988;8.450;2023-02-15T07:58:27;57.88;;;40.92;;
21814;SDS011;11069;48.988;8.450;2023-02-15T08:01:11;55.38;;;37.78;;
21814;SDS011;11069;48.988;8.450;2023-02-15T08:03:37;54.42;;;38.38;;
21814;SDS011;11069;48.988;8.450;2023-02-15T08:06:02;55.58;;;38.67;;
21814;SDS011;11069;48.988;8.450;2023-02-15T08:08:28;56.95;;;39.35;;
21814;SDS011;11069;48.988;8.450;2023-02-15T08:11:01;55.88;;;39.30;;
21814;SDS011;11069;48.988;8.450;2023-02-15T08:19:04;59.05;;;40.65;;
21814;SDS011;11069;48.988;8.450;2023-02-15T08:21:32;62.85;;;41.70;;
21814;SDS011;11069;48.988;8.450;2023-02-15T08:23:59;58.15;;;40.35;;
21814;SDS011;11069;48.988;8.450;2023-02-15T08:26:26;63.05;;;42.30;;
21814;SDS011;11069;48.988;8.450;2023-02-15T08:28:53;80.97;;;44.80;;
21814;SDS011;11069;48.988;8.450;2023-02-15T08:31:19;58.10;;;41.35;;
21814;SDS011;11069;48.988;8.450;2023-02-15T08:33:46;57.38;;;41.28;;
21814;SDS011;11069;48.988;8.450;2023-02-15T08:36:17;60.15;;;42.65;;
21814;SDS011;11069;48.988;8.450;2023-02-15T08:38:44;63.33;;;42.88;;
21814;SDS011;11069;48.988;8.450;2023-02-15T08:41:17;63.35;;;42.20;;
21814;SDS011;11069;48.988;8.450;2023-02-15T08:43:53;62.20;;;43.30;;
21814;SDS011;11069;48.988;8.450;2023-02-15T08:46:20;57.92;;;41.35;;
21814;SDS011;11069;48.988;8.450;2023-02-15T08:48:48;67.65;;;43.65;;
21814;SDS011;11069;48.988;8.450;2023-02-15T08:51:34;57.50;;;41.90;;
21814;SDS011;11069;48.988;8.450;2023-02-15T08:54:02;57.75;;;40.88;;
21814;SDS011;11069;48.988;8.450;2023-02-15T08:56:32;57.25;;;42.58;;
21814;SDS011;11069;48.988;8.450;2023-02-15T08:58:59;57.07;;;41.50;;
21814;SDS011;11069;48.988;8.450;2023-02-15T09:01:27;55.47;;;41.10;;
21814;SDS011;11069;48.988;8.450;2023-02-15T09:03:57;57.47;;;40.30;;
21814;SDS011;11069;48.988;8.450;2023-02-15T09:08:51;57.75;;;40.08;;
21814;SDS011;11069;48.988;8.450;2023-02-15T09:11:18;61.45;;;42.25;;
21814;SDS011;11069;48.988;8.450;2023-02-15T09:13:53;55.92;;;40.38;;
21814;SDS011;11069;48.988;8.450;2023-02-15T09:16:20;56.75;;;41.45;;
21814;SDS011;11069;48.988;8.450;2023-02-15T09:18:47;59.30;;;43.15;;
21814;SDS011;11069;48.988;8.450;2023-02-15T09:21:14;57.97;;;42.22;;
21814;SDS011;11069;48.988;8.450;2023-02-15T09:23:42;52.97;;;38.63;;
21814;SDS011;11069;48.988;8.450;2023-02-15T09:26:10;52.67;;;38.53;;
21814;SDS011;11069;48.988;8.450;2023-02-15T09:28:37;52.75;;;38.60;;
21814;SDS011;11069;48.988;8.450;2023-02-15T09:31:07;49.17;;;36.67;;
21814;SDS011;11069;48.988;8.450;2023-02-15T09:33:33;46.80;;;36.38;;
21814;SDS011;11069;48.988;8.450;2023-02-15T09:35:59;50.15;;;36.38;;
21814;SDS011;11069;48.988;8.450;2023-02-15T09:38:26;45.38;;;34.85;;
21814;SDS011;11069;48.988;8.450;2023-02-15T09:40:57;41.30;;;33.13;;
21814;SDS011;11069;48.988;8.450;2023-02-15T09:46:52;42.45;;;32.50;;
21814;SDS011;11069;48.988;8.450;2023-02-15T09:52:06;42.15;;;33.47;;
21814;SDS011;11069;48.988;8.450;2023-02-15T09:57:50;41.45;;;33.83;;
21814;SDS011;11069;48.988;8.450;2023-02-15T10:27:54;38.88;;;31.83;;
21814;SDS011;11069;48.988;8.450;2023-02-15T10:30:29;41.08;;;32.85;;
21814;SDS011;11069;48.988;8.450;2023-02-15T10:35:35;39.95;;;32.03;;
21814;SDS011;11069;48.988;8.450;2023-02-15T10:43:46;33.78;;;29.33;;
21814;SDS011;11069;48.988;8.450;2023-02-15T10:46:56;36.22;;;29.83;;
21814;SDS011;11069;48.988;8.450;2023-02-15T11:00:05;35.08;;;29.85;;
21814;SDS011;11069;48.988;8.450;2023-02-15T11:05:42;29.92;;;26.20;;
21814;SDS011;11069;48.988;8.450;2023-02-15T11:08:18;32.80;;;27.25;;
21814;SDS011;11069;48.988;8.450;2023-02-15T11:10:55;32.83;;;27.45;;
21814;SDS011;11069;48.988;8.450;2023-02-15T11:13:26;32.25;;;27.92;;
21814;SDS011;11069;48.988;8.450;2023-02-15T11:16:03;31.27;;;25.90;;
21814;SDS011;11069;48.988;8.450;2023-02-15T11:18:51;31.45;;;26.52;;
21814;SDS011;11069;48.988;8.450;2023-02-15T11:21:34;28.33;;;24.75;;
21814;SDS011;11069;48.988;8.450;2023-02-15T11:24:09;30.70;;;25.30;;
21814;SDS011;11069;48.988;8.450;2023-02-15T11:26:41;26.98;;;24.00;;
21814;SDS011;11069;48.988;8.450;2023-02-15T11:29:21;29.17;;;24.55;;
21814;SDS011;11069;48.988;8.450;2023-02-15T11:32:02;30.85;;;25.13;;
21814;SDS011;11069;48.988;8.450;2023-02-15T11:36:59;27.15;;;24.25;;
21814;SDS011;11069;48.988;8.450;2023-02-15T11:39:31;28.88;;;24.30;;
21814;SDS011;11069;48.988;8.450;2023-02-15T11:42:01;27.13;;;24.23;;
21814;SDS011;11069;48.988;8.450;2023-02-15T11:44:34;27.80;;;24.27;;
21814;SDS011;11069;48.988;8.450;2023-02-15T11:47:07;26.48;;;22.95;;
21814;SDS011;11069;48.988;8.450;2023-02-15T11:49:37;27.02;;;23.63;;
21814;SDS011;11069;48.988;8.450;2023-02-15T11:52:07;26.30;;;23.33;;
21814;SDS011;11069;48.988;8.450;2023-02-15T11:54:39;25.77;;;23.08;;
21814;SDS011;11069;48.988;8.450;2023-02-15T11:57:27;26.83;;;23.92;;
21814;SDS011;11069;48.988;8.450;2023-02-15T12:00:06;28.45;;;23.83;;
21814;SDS011;11069;48.988;8.450;2023-02-15T12:02:40;27.13;;;23.88;;
21814;SDS011;11069;48.988;8.450;2023-02-15T12:05:13;27.23;;;23.63;;
21814;SDS011;11069;48.988;8.450;2023-02-15T12:07:45;30.52;;;26.17;;
21814;SDS011;11069;48.988;8.450;2023-02-15T12:10:25;32.50;;;25.48;;
21814;SDS011;11069;48.988;8.450;2023-02-15T12:15:34;30.52;;;25.88;;
21814;SDS011;11069;48.988;8.450;2023-02-15T12:18:01;30.38;;;26.70;;
21814;SDS011;11069;48.988;8.450;2023-02-15T12:20:32;34.65;;;28.75;;
21814;SDS011;11069;48.988;8.450;2023-02-15T12:23:03;31.55;;;27.55;;
21814;SDS011;11069;48.988;8.450;2023-02-15T12:28:59;34.08;;;27.67;;
21814;SDS011;11069;48.988;8.450;2023-02-15T12:31:09;32.85;;;27.80;;
21814;SDS011;11069;48.988;8.450;2023-02-15T12:33:52;32.28;;;28.27;;
21814;SDS011;11069;48.988;8.450;2023-02-15T12:36:20;34.53;;;28.10;;
21814;SDS011;11069;48.988;8.450;2023-02-15T12:49:41;33.95;;;29.98;;
21814;SDS011;11069;48.988;8.450;2023-02-15T12:54:45;35.05;;;31.23;;
21814;SDS011;11069;48.988;8.450;2023-02-15T12:57:22;33.90;;;30.35;;
21814;SDS011;11069;48.988;8.450;2023-02-15T13:00:00;34.25;;;30.55;;
21814;SDS011;11069;48.988;8.450;2023-02-15T13:02:42;37.10;;;33.13;;
21814;SDS011;11069;48.988;8.450;2023-02-15T13:05:38;35.40;;;31.10;;
21814;SDS011;11069;48.988;8.450;2023-02-15T13:08:14;33.85;;;30.23;;
21814;SDS011;11069;48.988;8.450;2023-02-15T13:10:55;35.88;;;31.92;;
21814;SDS011;11069;48.988;8.450;2023-02-15T13:13:27;34.78;;;31.08;;
21814;SDS011;11069;48.988;8.450;2023-02-15T13:15:56;37.63;;;32.10;;
21814;SDS011;11069;48.988;8.450;2023-02-15T13:20:56;36.85;;;32.85;;
21814;SDS011;11069;48.988;8.450;2023-02-15T13:23:27;36.33;;;32.35;;
21814;SDS011;11069;48.988;8.450;2023-02-15T13:26:04;37.17;;;33.00;;
21814;SDS011;11069;48.988;8.450;2023-02-15T13:28:42;37.50;;;33.17;;
21814;SDS011;11069;48.988;8.450;2023-02-15T13:31:15;34.55;;;30.95;;
21814;SDS011;11069;48.988;8.450;2023-02-15T13:33:54;34.25;;;30.48;;
21814;SDS011;11069;48.988;8.450;2023-02-15T13:39:37;32.50;;;29.00;;
21814;SDS011;11069;48.988;8.450;2023-02-15T13:42:12;32.83;;;29.00;;
21814;SDS011;11069;48.988;8.450;2023-02-15T13:50:12;30.05;;;26.92;;
21814;SDS011;11069;48.988;8.450;2023-02-15T13:53:09;30.15;;;27.15;;
21814;SDS011;11069;48.988;8.450;2023-02-15T13:55:44;29.85;;;26.85;;
21814;SDS011;11069;48.988;8.450;2023-02-15T14:01:13;29.95;;;26.80;;
21814;SDS011;11069;48.988;8.450;2023-02-15T14:04:08;30.60;;;27.33;;
21814;SDS011;11069;48.988;8.450;2023-02-15T14:07:17;29.90;;;26.80;;
21814;SDS011;11069;48.988;8.450;2023-02-15T14:10:06;28.90;;;25.90;;
21814;SDS011;11069;48.988;8.450;2023-02-15T14:15:25;28.45;;;25.17;;
21814;SDS011;11069;48.988;8.450;2023-02-15T14:20:45;28.50;;;25.42;;
21814;SDS011;11069;48.988;8.450;2023-02-15T14:26:06;27.80;;;24.95;;
21814;SDS011;11069;48.988;8.450;2023-02-15T14:31:30;29.42;;;26.40;;
21814;SDS011;11069;48.988;8.450;2023-02-15T14:34:02;27.63;;;24.63;;
21814;SDS011;11069;48.988;8.450;2023-02-15T14:36:29;28.75;;;25.27;;
21814;SDS011;11069;48.988;8.450;2023-02-15T14:39:16;28.27;;;25.38;;
21814;SDS011;11069;48.988;8.450;2023-02-15T14:42:04;29.23;;;26.23;;
21814;SDS011;11069;48.988;8.450;2023-02-15T14:44:54;30.27;;;27.02;;
21814;SDS011;11069;48.988;8.450;2023-02-15T14:47:39;31.17;;;27.40;;
21814;SDS011;11069;48.988;8.450;2023-02-15T14:55:39;34.42;;;28.15;;
21814;SDS011;11069;48.988;8.450;2023-02-15T14:58:09;29.73;;;26.52;;
21814;SDS011;11069;48.988;8.450;2023-02-15T15:00:37;31.63;;;28.17;;
21814;SDS011;11069;48.988;8.450;2023-02-15T15:03:10;30.70;;;27.35;;
21814;SDS011;11069;48.988;8.450;2023-02-15T15:05:47;31.27;;;27.88;;
21814;SDS011;11069;48.988;8.450;2023-02-15T15:08:25;30.67;;;27.30;;
21814;SDS011;11069;48.988;8.450;2023-02-15T15:11:39;31.60;;;27.35;;
21814;SDS011;11069;48.988;8.450;2023-02-15T15:14:36;32.65;;;29.15;;
21814;SDS011;11069;48.988;8.450;2023-02-15T15:16:56;34.97;;;29.23;;
21814;SDS011;11069;48.988;8.450;2023-02-15T15:19:56;34.15;;;30.20;;
21814;SDS011;11069;48.988;8.450;2023-02-15T15:22:18;33.00;;;29.40;;
21814;SDS011;11069;48.988;8.450;2023-02-15T15:38:11;34.50;;;30.80;;
21814;SDS011;11069;48.988;8.450;2023-02-15T15:49:06;33.97;;;30.27;;
21814;SDS011;11069;48.988;8.450;2023-02-15T15:51:38;33.50;;;29.90;;
21814;SDS011;11069;48.988;8.450;2023-02-15T15:54:05;35.80;;;31.02;;
21814;SDS011;11069;48.988;8.450;2023-02-15T15:56:33;35.05;;;31.25;;
21814;SDS011;11069;48.988;8.450;2023-02-15T15:59:07;39.83;;;31.55;;
21814;SDS011;11069;48.988;8.450;2023-02-15T16:04:11;36.65;;;31.48;;
21814;SDS011;11069;48.988;8.450;2023-02-15T16:06:38;41.00;;;32.63;;
21814;SDS011;11069;48.988;8.450;2023-02-15T16:09:21;37.75;;;32.17;;
21814;SDS011;11069;48.988;8.450;2023-02-15T16:11:58;37.22;;;31.38;;
21814;SDS011;11069;48.988;8.450;2023-02-15T16:14:36;35.65;;;30.27;;
21814;SDS011;11069;48.988;8.450;2023-02-15T16:17:04;36.85;;;31.58;;
21814;SDS011;11069;48.988;8.450;2023-02-15T16:19:35;35.92;;;31.45;;
21814;SDS011;11069;48.988;8.450;2023-02-15T16:22:25;38.42;;;31.92;;
21814;SDS011;11069;48.988;8.450;2023-02-15T16:27:35;43.70;;;33.53;;
21814;SDS011;11069;48.988;8.450;2023-02-15T16:33:06;41.13;;;34.05;;
21814;SDS011;11069;48.988;8.450;2023-02-15T16:35:41;41.35;;;33.80;;
21814;SDS011;11069;48.988;8.450;2023-02-15T16:38:17;45.30;;;36.10;;
21814;SDS011;11069;48.988;8.450;2023-02-15T16:40:52;42.50;;;35.50;;
21814;SDS011;11069;48.988;8.450;2023-02-15T16:43:26;45.00;;;36.28;;
21814;SDS011;11069;48.988;8.450;2023-02-15T16:45:58;43.22;;;34.17;;
21814;SDS011;11069;48.988;8.450;2023-02-15T16:48:30;42.25;;;33.92;;
21814;SDS011;11069;48.988;8.450;2023-02-15T16:50:59;42.25;;;35.10;;
21814;SDS011;11069;48.988;8.450;2023-02-15T16:53:28;44.90;;;36.17;;
21814;SDS011;11069;48.988;8.450;2023-02-15T16:55:55;48.25;;;37.47;;
21814;SDS011;11069;48.988;8.450;2023-02-15T16:58:29;50.35;;;39.50;;
21814;SDS011;11069;48.988;8.450;2023-02-15T17:01:01;49.10;;;39.80;;
21814;SDS011;11069;48.988;8.450;2023-02-15T17:03:30;45.85;;;37.65;;
21814;SDS011;11069;48.988;8.450;2023-02-15T17:05:57;50.05;;;40.40;;
21814;SDS011;11069;48.988;8.450;2023-02-15T17:08:33;56.10;;;40.55;;
21814;SDS011;11069;48.988;8.450;2023-02-15T17:11:14;49.22;;;39.75;;
21814;SDS011;11069;48.988;8.450;2023-02-15T17:16:45;48.25;;;39.83;;
21814;SDS011;11069;48.988;8.450;2023-02-15T17:19:22;50.60;;;40.83;;
21814;SDS011;11069;48.988;8.450;2023-02-15T17:22:05;50.60;;;41.20;;
21814;SDS011;11069;48.988;8.450;2023-02-15T17:24:35;50.63;;;40.42;;
21814;SDS011;11069;48.988;8.450;2023-02-15T17:27:11;53.47;;;40.92;;
21814;SDS011;11069;48.988;8.450;2023-02-15T17:29:40;53.25;;;42.05;;
21814;SDS011;11069;48.988;8.450;2023-02-15T17:32:13;52.83;;;41.00;;
21814;SDS011;11069;48.988;8.450;2023-02-15T17:39:55;56.47;;;44.80;;
21814;SDS011;11069;48.988;8.450;2023-02-15T17:42:25;58.15;;;45.03;;
21814;SDS011;11069;48.988;8.450;2023-02-15T17:44:51;56.20;;;44.78;;
21814;SDS011;11069;48.988;8.450;2023-02-15T17:47:17;60.08;;;46.13;;